sensor_id;sensor_type;location;lat;lon;timestamp;P1;durP1;ratioP1;P2;durP2;ratioP2
3901;SDS011;1966;49.908;9.156;2023-12-20T00:00:44;3.43;;;3.03;;
3901;SDS011;1966;49.908;9.156;2023-12-20T00:05:43;3.30;;;2.67;;
3901;SDS011;1966;49.908;9.156;2023-12-20T00:10:43;3.13;;;2.60;;
3901;SDS011;1966;49.908;9.156;2023-12-20T00:15:43;3.60;;;2.80;;
3901;SDS011;1966;49.908;9.156;2023-12-20T00:20:43;2.17;;;2.07;;
3901;SDS011;1966;49.908;9.156;2023-12-20T00:25:42;2.53;;;2.33;;
3901;SDS011;1966;49.908;9.156;2023-12-20T00:30:41;2.20;;;2.00;;
3901;SDS011;1966;49.908;9.156;2023-12-20T00:35:42;2.33;;;2.13;;
3901;SDS011;1966;49.908;9.156;2023-12-20T00:40:41;2.17;;;2.03;;
3901;SDS011;1966;49.908;9.156;2023-12-20T00:45:40;2.00;;;1.90;;
3901;SDS011;1966;49.908;9.156;2023-12-20T00:50:41;3.07;;;2.30;;
3901;SDS011;1966;49.908;9.156;2023-12-20T00:55:40;2.13;;;1.93;;
3901;SDS011;1966;49.908;9.156;2023-12-20T01:00:42;2.33;;;2.13;;
3901;SDS011;1966;49.908;9.156;2023-12-20T01:05:43;2.10;;;2.00;;
3901;SDS011;1966;49.908;9.156;2023-12-20T01:10:42;1.97;;;1.87;;
3901;SDS011;1966;49.908;9.156;2023-12-20T01:15:41;1.90;;;1.63;;
3901;SDS011;1966;49.908;9.156;2023-12-20T01:20:41;1.70;;;1.60;;
3901;SDS011;1966;49.908;9.156;2023-12-20T01:25:42;2.13;;;1.93;;
3901;SDS011;1966;49.908;9.156;2023-12-20T01:30:41;2.13;;;1.93;;
3901;SDS011;1966;49.908;9.156;2023-12-20T01:35:40;1.73;;;1.60;;
3901;SDS011;1966;49.908;9.156;2023-12-20T01:40:39;1.70;;;1.60;;
3901;SDS011;1966;49.908;9.156;2023-12-20T01:45:40;2.13;;;1.67;;
3901;SDS011;1966;49.908;9.156;2023-12-20T01:50:39;2.10;;;1.90;;
3901;SDS011;1966;49.908;9.156;2023-12-20T01:55:40;1.60;;;1.50;;
3901;SDS011;1966;49.908;9.156;2023-12-20T02:00:42;2.07;;;1.90;;
3901;SDS011;1966;49.908;9.156;2023-12-20T02:05:41;2.00;;;1.83;;
3901;SDS011;1966;49.908;9.156;2023-12-20T02:10:41;2.80;;;2.10;;
3901;SDS011;1966;49.908;9.156;2023-12-20T02:15:42;2.00;;;1.80;;
3901;SDS011;1966;49.908;9.156;2023-12-20T02:20:41;1.97;;;1.77;;
3901;SDS011;1966;49.908;9.156;2023-12-20T02:25:42;1.73;;;1.63;;
3901;SDS011;1966;49.908;9.156;2023-12-20T02:30:41;2.00;;;1.90;;
3901;SDS011;1966;49.908;9.156;2023-12-20T02:35:41;1.73;;;1.63;;
3901;SDS011;1966;49.908;9.156;2023-12-20T02:40:41;1.90;;;1.80;;
3901;SDS011;1966;49.908;9.156;2023-12-20T02:45:41;1.80;;;1.70;;
3901;SDS011;1966;49.908;9.156;2023-12-20T02:50:40;1.73;;;1.63;;
3901;SDS011;1966;49.908;9.156;2023-12-20T02:55:39;2.03;;;1.83;;
3901;SDS011;1966;49.908;9.156;2023-12-20T03:00:40;1.60;;;1.50;;
3901;SDS011;1966;49.908;9.156;2023-12-20T03:05:39;1.90;;;1.80;;
3901;SDS011;1966;49.908;9.156;2023-12-20T03:10:38;2.03;;;1.90;;
3901;SDS011;1966;49.908;9.156;2023-12-20T03:15:37;1.80;;;1.70;;
3901;SDS011;1966;49.908;9.156;2023-12-20T03:20:38;1.77;;;1.67;;
3901;SDS011;1966;49.908;9.156;2023-12-20T03:25:39;1.87;;;1.77;;
3901;SDS011;1966;49.908;9.156;2023-12-20T03:30:38;1.70;;;1.60;;
3901;SDS011;1966;49.908;9.156;2023-12-20T03:35:38;2.10;;;1.93;;
3901;SDS011;1966;49.908;9.156;2023-12-20T03:40:38;1.90;;;1.80;;
3901;SDS011;1966;49.908;9.156;2023-12-20T03:45:37;1.60;;;1.50;;
3901;SDS011;1966;49.908;9.156;2023-12-20T03:50:36;1.50;;;1.40;;
3901;SDS011;1966;49.908;9.156;2023-12-20T03:55:37;1.80;;;1.70;;
3901;SDS011;1966;49.908;9.156;2023-12-20T04:00:36;1.63;;;1.53;;
3901;SDS011;1966;49.908;9.156;2023-12-20T04:05:35;2.13;;;1.87;;
3901;SDS011;1966;49.908;9.156;2023-12-20T04:10:36;2.00;;;1.73;;
3901;SDS011;1966;49.908;9.156;2023-12-20T04:15:36;1.70;;;1.60;;
3901;SDS011;1966;49.908;9.156;2023-12-20T04:20:35;1.80;;;1.70;;
3901;SDS011;1966;49.908;9.156;2023-12-20T04:25:34;1.80;;;1.70;;
3901;SDS011;1966;49.908;9.156;2023-12-20T04:30:35;2.57;;;2.37;;
3901;SDS011;1966;49.908;9.156;2023-12-20T04:35:34;2.30;;;2.10;;
3901;SDS011;1966;49.908;9.156;2023-12-20T04:40:34;2.50;;;2.30;;
3901;SDS011;1966;49.908;9.156;2023-12-20T04:45:33;2.50;;;2.30;;
3901;SDS011;1966;49.908;9.156;2023-12-20T04:50:34;2.60;;;2.40;;
3901;SDS011;1966;49.908;9.156;2023-12-20T04:55:33;2.30;;;2.17;;
3901;SDS011;1966;49.908;9.156;2023-12-20T05:00:32;3.20;;;2.90;;
3901;SDS011;1966;49.908;9.156;2023-12-20T05:05:31;3.07;;;2.87;;
3901;SDS011;1966;49.908;9.156;2023-12-20T05:10:32;3.03;;;2.83;;
3901;SDS011;1966;49.908;9.156;2023-12-20T05:15:31;3.03;;;2.80;;
3901;SDS011;1966;49.908;9.156;2023-12-20T05:20:30;3.43;;;3.13;;
3901;SDS011;1966;49.908;9.156;2023-12-20T05:25:30;3.30;;;3.00;;
3901;SDS011;1966;49.908;9.156;2023-12-20T05:30:30;3.47;;;3.17;;
3901;SDS011;1966;49.908;9.156;2023-12-20T05:35:30;3.73;;;3.43;;
3901;SDS011;1966;49.908;9.156;2023-12-20T05:40:29;2.80;;;2.60;;
3901;SDS011;1966;49.908;9.156;2023-12-20T05:45:28;3.33;;;3.10;;
3901;SDS011;1966;49.908;9.156;2023-12-20T05:50:29;3.33;;;3.07;;
3901;SDS011;1966;49.908;9.156;2023-12-20T05:55:28;3.53;;;3.23;;
3901;SDS011;1966;49.908;9.156;2023-12-20T06:00:27;3.77;;;2.87;;
3901;SDS011;1966;49.908;9.156;2023-12-20T06:05:26;3.33;;;3.00;;
3901;SDS011;1966;49.908;9.156;2023-12-20T06:10:27;3.37;;;3.07;;
3901;SDS011;1966;49.908;9.156;2023-12-20T06:15:26;3.57;;;2.93;;
3901;SDS011;1966;49.908;9.156;2023-12-20T06:20:25;3.70;;;3.27;;
3901;SDS011;1966;49.908;9.156;2023-12-20T06:25:26;5.53;;;3.20;;
3901;SDS011;1966;49.908;9.156;2023-12-20T06:30:25;3.10;;;2.80;;
3901;SDS011;1966;49.908;9.156;2023-12-20T06:35:25;6.60;;;3.03;;
3901;SDS011;1966;49.908;9.156;2023-12-20T06:40:24;3.73;;;2.40;;
3901;SDS011;1966;49.908;9.156;2023-12-20T06:45:25;6.53;;;2.87;;
3901;SDS011;1966;49.908;9.156;2023-12-20T06:50:24;5.27;;;3.10;;
3901;SDS011;1966;49.908;9.156;2023-12-20T06:55:23;9.20;;;5.33;;
3901;SDS011;1966;49.908;9.156;2023-12-20T07:00:22;6.10;;;3.53;;
3901;SDS011;1966;49.908;9.156;2023-12-20T07:05:23;5.73;;;3.00;;
3901;SDS011;1966;49.908;9.156;2023-12-20T07:10:22;7.33;;;3.10;;
3901;SDS011;1966;49.908;9.156;2023-12-20T07:15:22;3.77;;;3.17;;
3901;SDS011;1966;49.908;9.156;2023-12-20T07:20:21;5.37;;;2.83;;
3901;SDS011;1966;49.908;9.156;2023-12-20T07:25:21;4.93;;;2.60;;
3901;SDS011;1966;49.908;9.156;2023-12-20T07:30:21;3.43;;;2.13;;
3901;SDS011;1966;49.908;9.156;2023-12-20T07:35:20;3.40;;;2.83;;
3901;SDS011;1966;49.908;9.156;2023-12-20T07:40:19;4.13;;;2.87;;
3901;SDS011;1966;49.908;9.156;2023-12-20T07:45:20;4.53;;;2.30;;
3901;SDS011;1966;49.908;9.156;2023-12-20T07:50:19;4.50;;;2.43;;
3901;SDS011;1966;49.908;9.156;2023-12-20T07:55:18;3.27;;;2.50;;
3901;SDS011;1966;49.908;9.156;2023-12-20T08:00:17;4.30;;;2.27;;
3901;SDS011;1966;49.908;9.156;2023-12-20T08:05:18;2.60;;;2.40;;
3901;SDS011;1966;49.908;9.156;2023-12-20T08:10:17;5.00;;;2.30;;
3901;SDS011;1966;49.908;9.156;2023-12-20T08:15:17;5.23;;;2.27;;
3901;SDS011;1966;49.908;9.156;2023-12-20T08:20:16;3.53;;;2.77;;
3901;SDS011;1966;49.908;9.156;2023-12-20T08:25:17;3.10;;;2.30;;
3901;SDS011;1966;49.908;9.156;2023-12-20T08:30:16;3.07;;;2.40;;
3901;SDS011;1966;49.908;9.156;2023-12-20T08:35:18;9.20;;;3.23;;
3901;SDS011;1966;49.908;9.156;2023-12-20T08:40:19;3.63;;;2.30;;
3901;SDS011;1966;49.908;9.156;2023-12-20T08:45:18;5.23;;;3.17;;
3901;SDS011;1966;49.908;9.156;2023-12-20T08:50:18;4.83;;;2.67;;
3901;SDS011;1966;49.908;9.156;2023-12-20T08:55:18;3.03;;;2.20;;
3901;SDS011;1966;49.908;9.156;2023-12-20T09:00:19;3.43;;;2.20;;
3901;SDS011;1966;49.908;9.156;2023-12-20T09:05:22;2.87;;;2.40;;
3901;SDS011;1966;49.908;9.156;2023-12-20T09:10:23;2.97;;;2.20;;
3901;SDS011;1966;49.908;9.156;2023-12-20T09:15:22;5.90;;;2.10;;
3901;SDS011;1966;49.908;9.156;2023-12-20T09:20:21;4.27;;;2.13;;
3901;SDS011;1966;49.908;9.156;2023-12-20T09:25:22;2.20;;;1.97;;
3901;SDS011;1966;49.908;9.156;2023-12-20T09:30:22;5.03;;;2.63;;
3901;SDS011;1966;49.908;9.156;2023-12-20T09:35:21;8.30;;;2.70;;
3901;SDS011;1966;49.908;9.156;2023-12-20T09:40:20;2.80;;;2.10;;
3901;SDS011;1966;49.908;9.156;2023-12-20T09:45:23;6.20;;;2.17;;
3901;SDS011;1966;49.908;9.156;2023-12-20T09:50:22;5.50;;;2.90;;
3901;SDS011;1966;49.908;9.156;2023-12-20T09:55:21;4.23;;;2.27;;
3901;SDS011;1966;49.908;9.156;2023-12-20T10:00:22;2.30;;;2.10;;
3901;SDS011;1966;49.908;9.156;2023-12-20T10:05:23;2.70;;;2.00;;
3901;SDS011;1966;49.908;9.156;2023-12-20T10:10:25;5.63;;;2.47;;
3901;SDS011;1966;49.908;9.156;2023-12-20T10:15:26;2.90;;;2.50;;
3901;SDS011;1966;49.908;9.156;2023-12-20T10:20:25;11.93;;;3.03;;
3901;SDS011;1966;49.908;9.156;2023-12-20T10:25:26;3.87;;;2.23;;
3901;SDS011;1966;49.908;9.156;2023-12-20T10:30:27;3.90;;;2.30;;
3901;SDS011;1966;49.908;9.156;2023-12-20T10:35:27;4.70;;;2.77;;
3901;SDS011;1966;49.908;9.156;2023-12-20T10:40:26;3.30;;;2.60;;
3901;SDS011;1966;49.908;9.156;2023-12-20T10:45:29;3.33;;;2.60;;
3901;SDS011;1966;49.908;9.156;2023-12-20T10:50:28;7.67;;;2.53;;
3901;SDS011;1966;49.908;9.156;2023-12-20T10:55:29;4.90;;;2.47;;
3901;SDS011;1966;49.908;9.156;2023-12-20T11:00:29;7.33;;;2.93;;
3901;SDS011;1966;49.908;9.156;2023-12-20T11:05:31;8.17;;;2.90;;
3901;SDS011;1966;49.908;9.156;2023-12-20T11:10:35;11.40;;;3.30;;
3901;SDS011;1966;49.908;9.156;2023-12-20T11:15:40;4.20;;;2.60;;
3901;SDS011;1966;49.908;9.156;2023-12-20T11:20:41;7.10;;;2.67;;
3901;SDS011;1966;49.908;9.156;2023-12-20T11:25:47;7.00;;;2.87;;
3901;SDS011;1966;49.908;9.156;2023-12-20T11:30:50;4.90;;;2.10;;
3901;SDS011;1966;49.908;9.156;2023-12-20T11:35:49;3.93;;;2.63;;
3901;SDS011;1966;49.908;9.156;2023-12-20T11:40:49;6.87;;;2.53;;
3901;SDS011;1966;49.908;9.156;2023-12-20T11:45:50;4.43;;;2.33;;
3901;SDS011;1966;49.908;9.156;2023-12-20T11:50:49;5.13;;;2.20;;
3901;SDS011;1966;49.908;9.156;2023-12-20T11:55:49;4.00;;;2.00;;
3901;SDS011;1966;49.908;9.156;2023-12-20T12:00:50;6.67;;;2.40;;
3901;SDS011;1966;49.908;9.156;2023-12-20T12:05:49;4.73;;;2.03;;
3901;SDS011;1966;49.908;9.156;2023-12-20T12:10:49;3.50;;;2.10;;
3901;SDS011;1966;49.908;9.156;2023-12-20T12:15:48;8.97;;;3.50;;
3901;SDS011;1966;49.908;9.156;2023-12-20T12:20:49;6.70;;;2.60;;
3901;SDS011;1966;49.908;9.156;2023-12-20T12:25:48;6.67;;;2.10;;
3901;SDS011;1966;49.908;9.156;2023-12-20T12:30:55;9.17;;;2.70;;
3901;SDS011;1966;49.908;9.156;2023-12-20T12:35:56;6.50;;;3.67;;
3901;SDS011;1966;49.908;9.156;2023-12-20T12:40:56;9.57;;;2.90;;
3901;SDS011;1966;49.908;9.156;2023-12-20T12:45:55;4.90;;;2.87;;
3901;SDS011;1966;49.908;9.156;2023-12-20T12:50:56;5.43;;;2.80;;
3901;SDS011;1966;49.908;9.156;2023-12-20T12:55:57;4.10;;;2.80;;
3901;SDS011;1966;49.908;9.156;2023-12-20T13:00:56;4.00;;;2.60;;
3901;SDS011;1966;49.908;9.156;2023-12-20T13:05:57;2.77;;;2.40;;
3901;SDS011;1966;49.908;9.156;2023-12-20T13:10:56;8.13;;;2.37;;
3901;SDS011;1966;49.908;9.156;2023-12-20T13:15:58;6.93;;;3.00;;
3901;SDS011;1966;49.908;9.156;2023-12-20T13:21:00;6.90;;;2.60;;
3901;SDS011;1966;49.908;9.156;2023-12-20T13:26:00;5.43;;;2.53;;
3901;SDS011;1966;49.908;9.156;2023-12-20T13:30:59;5.93;;;2.70;;
3901;SDS011;1966;49.908;9.156;2023-12-20T13:35:59;4.47;;;2.17;;
3901;SDS011;1966;49.908;9.156;2023-12-20T13:40:59;5.70;;;2.80;;
3901;SDS011;1966;49.908;9.156;2023-12-20T13:45:58;5.57;;;3.17;;
3901;SDS011;1966;49.908;9.156;2023-12-20T13:50:57;4.20;;;2.93;;
3901;SDS011;1966;49.908;9.156;2023-12-20T13:55:59;9.30;;;3.07;;
3901;SDS011;1966;49.908;9.156;2023-12-20T14:00:59;6.47;;;3.10;;
3901;SDS011;1966;49.908;9.156;2023-12-20T14:05:58;8.07;;;3.53;;
3901;SDS011;1966;49.908;9.156;2023-12-20T14:10:58;6.53;;;3.20;;
3901;SDS011;1966;49.908;9.156;2023-12-20T14:16:00;8.70;;;3.90;;
3901;SDS011;1966;49.908;9.156;2023-12-20T14:21:01;5.90;;;3.80;;
3901;SDS011;1966;49.908;9.156;2023-12-20T14:26:00;7.83;;;3.80;;
3901;SDS011;1966;49.908;9.156;2023-12-20T14:31:01;9.80;;;4.27;;
3901;SDS011;1966;49.908;9.156;2023-12-20T14:36:01;8.40;;;3.80;;
3901;SDS011;1966;49.908;9.156;2023-12-20T14:41:03;5.20;;;3.50;;
3901;SDS011;1966;49.908;9.156;2023-12-20T14:46:05;5.40;;;3.20;;
3901;SDS011;1966;49.908;9.156;2023-12-20T14:51:05;7.33;;;3.00;;
3901;SDS011;1966;49.908;9.156;2023-12-20T14:56:04;4.40;;;2.47;;
3901;SDS011;1966;49.908;9.156;2023-12-20T15:01:04;12.63;;;4.23;;
3901;SDS011;1966;49.908;9.156;2023-12-20T15:06:07;11.60;;;5.30;;
3901;SDS011;1966;49.908;9.156;2023-12-20T15:11:09;10.93;;;5.23;;
3901;SDS011;1966;49.908;9.156;2023-12-20T15:16:09;6.33;;;3.43;;
3901;SDS011;1966;49.908;9.156;2023-12-20T15:21:09;5.20;;;3.10;;
3901;SDS011;1966;49.908;9.156;2023-12-20T15:26:09;5.27;;;2.90;;
3901;SDS011;1966;49.908;9.156;2023-12-20T15:31:08;4.30;;;3.00;;
3901;SDS011;1966;49.908;9.156;2023-12-20T15:36:07;6.37;;;2.67;;
3901;SDS011;1966;49.908;9.156;2023-12-20T15:41:08;6.10;;;2.93;;
3901;SDS011;1966;49.908;9.156;2023-12-20T15:46:09;10.63;;;2.47;;
3901;SDS011;1966;49.908;9.156;2023-12-20T15:51:08;4.30;;;2.70;;
3901;SDS011;1966;49.908;9.156;2023-12-20T15:56:09;7.40;;;2.50;;
3901;SDS011;1966;49.908;9.156;2023-12-20T16:01:09;9.53;;;3.30;;
3901;SDS011;1966;49.908;9.156;2023-12-20T16:06:08;8.27;;;2.60;;
3901;SDS011;1966;49.908;9.156;2023-12-20T16:11:09;4.53;;;2.80;;
3901;SDS011;1966;49.908;9.156;2023-12-20T16:16:13;9.03;;;2.50;;
3901;SDS011;1966;49.908;9.156;2023-12-20T16:21:12;5.77;;;2.50;;
3901;SDS011;1966;49.908;9.156;2023-12-20T16:26:13;4.90;;;2.20;;
3901;SDS011;1966;49.908;9.156;2023-12-20T16:31:12;5.53;;;2.43;;
3901;SDS011;1966;49.908;9.156;2023-12-20T16:36:12;4.60;;;2.30;;
3901;SDS011;1966;49.908;9.156;2023-12-20T16:41:11;6.90;;;3.00;;
3901;SDS011;1966;49.908;9.156;2023-12-20T16:46:11;7.93;;;2.67;;
3901;SDS011;1966;49.908;9.156;2023-12-20T16:51:11;3.97;;;2.87;;
3901;SDS011;1966;49.908;9.156;2023-12-20T16:56:10;5.10;;;2.87;;
3901;SDS011;1966;49.908;9.156;2023-12-20T17:01:09;8.23;;;2.90;;
3901;SDS011;1966;49.908;9.156;2023-12-20T17:06:12;8.97;;;3.23;;
3901;SDS011;1966;49.908;9.156;2023-12-20T17:11:12;6.67;;;2.73;;
3901;SDS011;1966;49.908;9.156;2023-12-20T17:16:11;11.67;;;3.20;;
3901;SDS011;1966;49.908;9.156;2023-12-20T17:21:10;2.90;;;2.60;;
3901;SDS011;1966;49.908;9.156;2023-12-20T17:26:11;9.20;;;3.10;;
3901;SDS011;1966;49.908;9.156;2023-12-20T17:31:10;4.87;;;2.47;;
3901;SDS011;1966;49.908;9.156;2023-12-20T17:36:10;7.47;;;3.03;;
3901;SDS011;1966;49.908;9.156;2023-12-20T17:41:13;7.20;;;2.77;;
3901;SDS011;1966;49.908;9.156;2023-12-20T17:46:13;5.10;;;2.60;;
3901;SDS011;1966;49.908;9.156;2023-12-20T17:51:12;5.67;;;2.60;;
3901;SDS011;1966;49.908;9.156;2023-12-20T17:56:13;4.60;;;2.83;;
3901;SDS011;1966;49.908;9.156;2023-12-20T18:01:12;3.67;;;2.80;;
3901;SDS011;1966;49.908;9.156;2023-12-20T18:06:12;6.07;;;3.33;;
3901;SDS011;1966;49.908;9.156;2023-12-20T18:11:11;5.57;;;2.97;;
3901;SDS011;1966;49.908;9.156;2023-12-20T18:16:12;7.43;;;2.93;;
3901;SDS011;1966;49.908;9.156;2023-12-20T18:21:12;3.57;;;3.10;;
3901;SDS011;1966;49.908;9.156;2023-12-20T18:26:11;7.87;;;4.20;;
3901;SDS011;1966;49.908;9.156;2023-12-20T18:31:10;14.77;;;6.43;;
3901;SDS011;1966;49.908;9.156;2023-12-20T18:36:11;15.60;;;5.43;;
3901;SDS011;1966;49.908;9.156;2023-12-20T18:41:10;7.47;;;3.13;;
3901;SDS011;1966;49.908;9.156;2023-12-20T18:46:12;7.07;;;3.40;;
3901;SDS011;1966;49.908;9.156;2023-12-20T18:51:13;7.80;;;3.80;;
3901;SDS011;1966;49.908;9.156;2023-12-20T18:56:12;7.20;;;3.50;;
3901;SDS011;1966;49.908;9.156;2023-12-20T19:01:12;6.67;;;3.63;;
3901;SDS011;1966;49.908;9.156;2023-12-20T19:06:12;8.57;;;3.70;;
3901;SDS011;1966;49.908;9.156;2023-12-20T19:11:12;6.33;;;3.67;;
3901;SDS011;1966;49.908;9.156;2023-12-20T19:16:11;4.70;;;3.13;;
3901;SDS011;1966;49.908;9.156;2023-12-20T19:21:10;7.40;;;3.97;;
3901;SDS011;1966;49.908;9.156;2023-12-20T19:26:11;4.97;;;2.90;;
3901;SDS011;1966;49.908;9.156;2023-12-20T19:31:10;6.20;;;3.70;;
3901;SDS011;1966;49.908;9.156;2023-12-20T19:36:10;5.60;;;3.23;;
3901;SDS011;1966;49.908;9.156;2023-12-20T19:41:11;10.10;;;3.10;;
3901;SDS011;1966;49.908;9.156;2023-12-20T19:46:10;6.17;;;2.90;;
3901;SDS011;1966;49.908;9.156;2023-12-20T19:51:10;4.63;;;3.10;;
3901;SDS011;1966;49.908;9.156;2023-12-20T19:56:14;6.80;;;3.10;;
3901;SDS011;1966;49.908;9.156;2023-12-20T20:01:13;5.77;;;3.47;;
3901;SDS011;1966;49.908;9.156;2023-12-20T20:06:12;4.80;;;3.03;;
3901;SDS011;1966;49.908;9.156;2023-12-20T20:11:11;5.43;;;3.63;;
3901;SDS011;1966;49.908;9.156;2023-12-20T20:16:12;5.67;;;3.30;;
3901;SDS011;1966;49.908;9.156;2023-12-20T20:21:11;12.03;;;3.83;;
3901;SDS011;1966;49.908;9.156;2023-12-20T20:26:10;6.03;;;3.20;;
3901;SDS011;1966;49.908;9.156;2023-12-20T20:31:10;6.33;;;3.20;;
3901;SDS011;1966;49.908;9.156;2023-12-20T20:36:10;4.60;;;3.10;;
3901;SDS011;1966;49.908;9.156;2023-12-20T20:41:10;6.17;;;3.17;;
3901;SDS011;1966;49.908;9.156;2023-12-20T20:46:09;5.70;;;3.17;;
3901;SDS011;1966;49.908;9.156;2023-12-20T20:51:10;4.87;;;3.43;;
3901;SDS011;1966;49.908;9.156;2023-12-20T20:56:09;9.13;;;3.67;;
3901;SDS011;1966;49.908;9.156;2023-12-20T21:01:08;7.57;;;3.87;;
3901;SDS011;1966;49.908;9.156;2023-12-20T21:06:08;8.20;;;3.50;;
3901;SDS011;1966;49.908;9.156;2023-12-20T21:11:08;6.30;;;3.17;;
3901;SDS011;1966;49.908;9.156;2023-12-20T21:16:08;8.13;;;3.20;;
3901;SDS011;1966;49.908;9.156;2023-12-20T21:21:09;3.93;;;2.90;;
3901;SDS011;1966;49.908;9.156;2023-12-20T21:26:09;5.80;;;3.60;;
3901;SDS011;1966;49.908;9.156;2023-12-20T21:31:09;4.13;;;2.80;;
3901;SDS011;1966;49.908;9.156;2023-12-20T21:36:08;6.10;;;3.47;;
3901;SDS011;1966;49.908;9.156;2023-12-20T21:41:10;3.93;;;2.90;;
3901;SDS011;1966;49.908;9.156;2023-12-20T21:46:10;3.70;;;3.00;;
3901;SDS011;1966;49.908;9.156;2023-12-20T21:51:10;6.53;;;3.40;;
3901;SDS011;1966;49.908;9.156;2023-12-20T21:56:11;4.63;;;3.80;;
3901;SDS011;1966;49.908;9.156;2023-12-20T22:01:10;5.07;;;3.50;;
3901;SDS011;1966;49.908;9.156;2023-12-20T22:06:09;5.37;;;3.20;;
3901;SDS011;1966;49.908;9.156;2023-12-20T22:11:09;4.37;;;2.87;;
3901;SDS011;1966;49.908;9.156;2023-12-20T22:16:09;3.30;;;3.00;;
3901;SDS011;1966;49.908;9.156;2023-12-20T22:21:09;4.87;;;3.10;;
3901;SDS011;1966;49.908;9.156;2023-12-20T22:26:09;5.00;;;3.30;;
3901;SDS011;1966;49.908;9.156;2023-12-20T22:31:09;5.00;;;3.30;;
3901;SDS011;1966;49.908;9.156;2023-12-20T22:36:09;3.10;;;2.80;;
3901;SDS011;1966;49.908;9.156;2023-12-20T22:41:08;6.37;;;3.60;;
3901;SDS011;1966;49.908;9.156;2023-12-20T22:46:09;6.60;;;3.00;;
3901;SDS011;1966;49.908;9.156;2023-12-20T22:51:08;3.00;;;2.60;;
3901;SDS011;1966;49.908;9.156;2023-12-20T22:56:08;7.03;;;2.97;;
3901;SDS011;1966;49.908;9.156;2023-12-20T23:01:07;4.53;;;3.00;;
3901;SDS011;1966;49.908;9.156;2023-12-20T23:06:07;3.10;;;2.50;;
3901;SDS011;1966;49.908;9.156;2023-12-20T23:11:07;4.77;;;3.00;;
3901;SDS011;1966;49.908;9.156;2023-12-20T23:16:06;3.50;;;2.60;;
3901;SDS011;1966;49.908;9.156;2023-12-20T23:21:05;2.70;;;2.43;;
3901;SDS011;1966;49.908;9.156;2023-12-20T23:26:06;2.50;;;2.30;;
3901;SDS011;1966;49.908;9.156;2023-12-20T23:31:07;3.10;;;2.30;;
3901;SDS011;1966;49.908;9.156;2023-12-20T23:36:06;2.70;;;2.47;;
3901;SDS011;1966;49.908;9.156;2023-12-20T23:41:07;2.93;;;2.60;;
3901;SDS011;1966;49.908;9.156;2023-12-20T23:46:06;2.33;;;2.13;;
3901;SDS011;1966;49.908;9.156;2023-12-20T23:51:05;2.20;;;2.10;;
3901;SDS011;1966;49.908;9.156;2023-12-20T23:56:05;3.93;;;2.60;;
